sensor_id;sensor_type;location;lat;lon;timestamp;pressure;altitude;pressure_sealevel;temperature;humidity
55538;BME280;41383;51.418;7.286;2023-02-10T00:01:14;101728.00;;;5.08;69.78
55538;BME280;41383;51.418;7.286;2023-02-10T00:03:40;101723.09;;;5.04;70.07
55538;BME280;41383;51.418;7.286;2023-02-10T00:06:09;101731.84;;;5.14;70.33
55538;BME280;41383;51.418;7.286;2023-02-10T00:08:35;101738.56;;;5.18;70.26
55538;BME280;41383;51.418;7.286;2023-02-10T00:11:04;101739.22;;;5.20;69.87
55538;BME280;41383;51.418;7.286;2023-02-10T00:13:30;101737.84;;;5.24;69.93
55538;BME280;41383;51.418;7.286;2023-02-10T00:16:00;101738.56;;;5.18;70.49
55538;BME280;41383;51.418;7.286;2023-02-10T00:18:26;101738.56;;;5.18;70.20
55538;BME280;41383;51.418;7.286;2023-02-10T00:20:52;101739.88;;;5.22;69.89
55538;BME280;41383;51.418;7.286;2023-02-10T00:23:17;101744.78;;;5.19;70.04
55538;BME280;41383;51.418;7.286;2023-02-10T00:25:43;101748.53;;;5.18;70.56
55538;BME280;41383;51.418;7.286;2023-02-10T00:28:08;101755.63;;;5.19;70.00
55538;BME280;41383;51.418;7.286;2023-02-10T00:30:33;101751.06;;;5.19;70.83
55538;BME280;41383;51.418;7.286;2023-02-10T00:32:59;101747.63;;;5.25;70.23
55538;BME280;41383;51.418;7.286;2023-02-10T00:35:24;101745.25;;;5.31;70.27
55538;BME280;41383;51.418;7.286;2023-02-10T00:37:49;101746.31;;;5.21;70.11
55538;BME280;41383;51.418;7.286;2023-02-10T00:40:15;101740.72;;;5.23;70.18
55538;BME280;41383;51.418;7.286;2023-02-10T00:42:41;101740.38;;;5.26;70.75
55538;BME280;41383;51.418;7.286;2023-02-10T00:45:06;101732.50;;;5.16;70.65
55538;BME280;41383;51.418;7.286;2023-02-10T00:47:32;101732.50;;;5.16;70.82
55538;BME280;41383;51.418;7.286;2023-02-10T00:49:57;101737.72;;;5.18;70.91
55538;BME280;41383;51.418;7.286;2023-02-10T00:52:23;101741.44;;;5.17;70.93
55538;BME280;41383;51.418;7.286;2023-02-10T00:54:48;101743.13;;;5.18;70.96
55538;BME280;41383;51.418;7.286;2023-02-10T00:57:13;101742.28;;;5.17;71.34
55538;BME280;41383;51.418;7.286;2023-02-10T00:59:39;101740.22;;;5.19;71.13
55538;BME280;41383;51.418;7.286;2023-02-10T01:02:04;101738.56;;;5.18;71.50
55538;BME280;41383;51.418;7.286;2023-02-10T01:04:29;101742.28;;;5.17;71.77
55538;BME280;41383;51.418;7.286;2023-02-10T01:06:55;101736.69;;;5.19;71.79
55538;BME280;41383;51.418;7.286;2023-02-10T01:09:20;101739.22;;;5.20;71.69
55538;BME280;41383;51.418;7.286;2023-02-10T01:11:45;101739.56;;;5.17;71.66
55538;BME280;41383;51.418;7.286;2023-02-10T01:14:11;101748.78;;;5.08;71.76
55538;BME280;41383;51.418;7.286;2023-02-10T01:16:36;101749.00;;;4.98;72.76
55538;BME280;41383;51.418;7.286;2023-02-10T01:19:02;101751.91;;;4.96;72.80
55538;BME280;41383;51.418;7.286;2023-02-10T01:21:28;101761.69;;;4.97;72.41
55538;BME280;41383;51.418;7.286;2023-02-10T01:23:53;101755.56;;;5.04;73.14
55538;BME280;41383;51.418;7.286;2023-02-10T01:26:18;101754.69;;;5.03;73.29
55538;BME280;41383;51.418;7.286;2023-02-10T01:28:44;101760.72;;;4.90;73.58
55538;BME280;41383;51.418;7.286;2023-02-10T01:31:20;101761.16;;;5.02;73.60
55538;BME280;41383;51.418;7.286;2023-02-10T01:33:46;101759.59;;;5.08;73.35
55538;BME280;41383;51.418;7.286;2023-02-10T01:36:14;101762.97;;;5.10;72.82
55538;BME280;41383;51.418;7.286;2023-02-10T01:38:39;101766.13;;;5.13;73.09
55538;BME280;41383;51.418;7.286;2023-02-10T01:41:05;101761.91;;;5.11;73.02
55538;BME280;41383;51.418;7.286;2023-02-10T01:43:31;101770.03;;;5.11;73.07
55538;BME280;41383;51.418;7.286;2023-02-10T01:45:56;101763.81;;;5.10;73.36
55538;BME280;41383;51.418;7.286;2023-02-10T01:48:22;101771.78;;;5.04;73.37
55538;BME280;41383;51.418;7.286;2023-02-10T01:50:56;101776.53;;;5.01;73.37
55538;BME280;41383;51.418;7.286;2023-02-10T01:53:22;101774.25;;;5.13;73.16
55538;BME280;41383;51.418;7.286;2023-02-10T01:55:52;101770.03;;;5.11;73.01
55538;BME280;41383;51.418;7.286;2023-02-10T01:58:24;101777.81;;;5.14;72.76
55538;BME280;41383;51.418;7.286;2023-02-10T02:00:50;101787.28;;;5.10;73.44
55538;BME280;41383;51.418;7.286;2023-02-10T02:03:15;101791.19;;;5.07;73.40
55538;BME280;41383;51.418;7.286;2023-02-10T02:05:42;101793.22;;;5.05;73.23
55538;BME280;41383;51.418;7.286;2023-02-10T02:08:17;101785.28;;;5.04;73.66
55538;BME280;41383;51.418;7.286;2023-02-10T02:19:48;101790.53;;;5.05;73.52
55538;BME280;41383;51.418;7.286;2023-02-10T02:27:55;101808.94;;;5.10;73.42
55538;BME280;41383;51.418;7.286;2023-02-10T02:30:39;101802.31;;;5.12;73.25
55538;BME280;41383;51.418;7.286;2023-02-10T02:33:33;101810.59;;;5.11;73.63
55538;BME280;41383;51.418;7.286;2023-02-10T02:36:09;101802.38;;;5.04;74.27
55538;BME280;41383;51.418;7.286;2023-02-10T02:38:38;101807.63;;;4.97;74.29
55538;BME280;41383;51.418;7.286;2023-02-10T02:41:03;101802.91;;;4.99;74.14
55538;BME280;41383;51.418;7.286;2023-02-10T02:43:29;101808.59;;;5.05;74.13
55538;BME280;41383;51.418;7.286;2023-02-10T02:46:01;101806.94;;;5.04;74.14
55538;BME280;41383;51.418;7.286;2023-02-10T02:48:44;101801.84;;;5.00;73.73
55538;BME280;41383;51.418;7.286;2023-02-10T02:53:50;101807.34;;;4.92;73.57
55538;BME280;41383;51.418;7.286;2023-02-10T03:01:53;101816.97;;;4.86;73.87
55538;BME280;41383;51.418;7.286;2023-02-10T03:04:21;101816.81;;;4.88;74.04
55538;BME280;41383;51.418;7.286;2023-02-10T03:06:47;101810.75;;;4.86;74.25
55538;BME280;41383;51.418;7.286;2023-02-10T03:09:13;101811.94;;;4.83;74.19
55538;BME280;41383;51.418;7.286;2023-02-10T03:11:39;101811.75;;;4.85;74.13
55538;BME280;41383;51.418;7.286;2023-02-10T03:14:04;101800.25;;;4.83;73.99
55538;BME280;41383;51.418;7.286;2023-02-10T03:16:30;101806.25;;;4.70;74.57
55538;BME280;41383;51.418;7.286;2023-02-10T03:18:55;101808.41;;;4.74;74.72
55538;BME280;41383;51.418;7.286;2023-02-10T03:21:20;101804.03;;;4.73;74.73
55538;BME280;41383;51.418;7.286;2023-02-10T03:23:45;101805.69;;;4.74;74.64
55538;BME280;41383;51.418;7.286;2023-02-10T03:26:11;101800.16;;;4.76;74.20
55538;BME280;41383;51.418;7.286;2023-02-10T03:28:37;101786.81;;;4.66;74.58
55538;BME280;41383;51.418;7.286;2023-02-10T03:31:06;101777.03;;;4.65;74.66
55538;BME280;41383;51.418;7.286;2023-02-10T03:33:32;101787.19;;;4.63;74.80
55538;BME280;41383;51.418;7.286;2023-02-10T03:35:58;101782.63;;;4.63;74.37
55538;BME280;41383;51.418;7.286;2023-02-10T03:38:24;101778.81;;;4.49;74.57
55538;BME280;41383;51.418;7.286;2023-02-10T03:40:51;101777.25;;;4.55;75.35
55538;BME280;41383;51.418;7.286;2023-02-10T03:43:18;101772.03;;;4.53;75.27
55538;BME280;41383;51.418;7.286;2023-02-10T03:45:44;101778.81;;;4.49;75.40
55538;BME280;41383;51.418;7.286;2023-02-10T03:48:09;101779.50;;;4.43;75.40
55538;BME280;41383;51.418;7.286;2023-02-10T03:50:35;101779.00;;;4.39;75.40
55538;BME280;41383;51.418;7.286;2023-02-10T03:53:00;101774.41;;;4.40;75.54
55538;BME280;41383;51.418;7.286;2023-02-10T03:55:26;101773.66;;;4.23;76.26
55538;BME280;41383;51.418;7.286;2023-02-10T03:57:51;101783.06;;;4.35;76.04
55538;BME280;41383;51.418;7.286;2023-02-10T04:00:16;101785.59;;;4.37;75.42
55538;BME280;41383;51.418;7.286;2023-02-10T04:02:42;101787.75;;;4.41;75.81
55538;BME280;41383;51.418;7.286;2023-02-10T04:05:07;101788.28;;;4.37;75.62
55538;BME280;41383;51.418;7.286;2023-02-10T04:07:32;101790.44;;;4.41;75.35
55538;BME280;41383;51.418;7.286;2023-02-10T04:09:58;101788.59;;;4.42;75.51
55538;BME280;41383;51.418;7.286;2023-02-10T04:12:23;101784.22;;;4.41;75.35
55538;BME280;41383;51.418;7.286;2023-02-10T04:14:48;101790.78;;;4.47;74.97
55538;BME280;41383;51.418;7.286;2023-02-10T04:17:14;101796.22;;;4.38;74.74
55538;BME280;41383;51.418;7.286;2023-02-10T04:19:39;101797.72;;;4.41;75.07
55538;BME280;41383;51.418;7.286;2023-02-10T04:22:04;101798.41;;;4.35;75.25
55538;BME280;41383;51.418;7.286;2023-02-10T04:24:29;101799.28;;;4.35;75.20
55538;BME280;41383;51.418;7.286;2023-02-10T04:26:55;101800.09;;;4.36;74.97
55538;BME280;41383;51.418;7.286;2023-02-10T04:29:21;101803.47;;;4.38;75.13
55538;BME280;41383;51.418;7.286;2023-02-10T04:31:47;101802.78;;;4.36;75.32
55538;BME280;41383;51.418;7.286;2023-02-10T04:34:12;101806.84;;;4.31;74.94
55538;BME280;41383;51.418;7.286;2023-02-10T04:36:37;101794.69;;;4.36;74.79
55538;BME280;41383;51.418;7.286;2023-02-10T04:39:02;101797.06;;;4.30;74.93
55538;BME280;41383;51.418;7.286;2023-02-10T04:41:28;101795.38;;;4.29;75.22
55538;BME280;41383;51.418;7.286;2023-02-10T04:43:53;101799.78;;;4.30;74.99
55538;BME280;41383;51.418;7.286;2023-02-10T04:46:18;101806.84;;;4.31;74.73
55538;BME280;41383;51.418;7.286;2023-02-10T04:48:44;101796.41;;;4.20;75.17
55538;BME280;41383;51.418;7.286;2023-02-10T04:51:10;101801.16;;;4.09;75.72
55538;BME280;41383;51.418;7.286;2023-02-10T04:53:37;101815.16;;;4.13;75.67
55538;BME280;41383;51.418;7.286;2023-02-10T04:56:02;101807.91;;;4.14;75.47
55538;BME280;41383;51.418;7.286;2023-02-10T04:58:29;101799.13;;;4.20;75.60
55538;BME280;41383;51.418;7.286;2023-02-10T05:00:55;101796.41;;;4.20;75.73
55538;BME280;41383;51.418;7.286;2023-02-10T05:03:20;101793.25;;;4.08;76.02
55538;BME280;41383;51.418;7.286;2023-02-10T05:05:46;101796.13;;;4.06;75.73
55538;BME280;41383;51.418;7.286;2023-02-10T05:08:11;101802.19;;;4.00;76.27
55538;BME280;41383;51.418;7.286;2023-02-10T05:10:36;101803.88;;;3.93;75.99
55538;BME280;41383;51.418;7.286;2023-02-10T05:13:01;101797.97;;;3.97;76.31
55538;BME280;41383;51.418;7.286;2023-02-10T05:15:27;101809.94;;;4.12;75.94
55538;BME280;41383;51.418;7.286;2023-02-10T05:17:52;101804.72;;;4.10;75.63
55538;BME280;41383;51.418;7.286;2023-02-10T05:20:17;101806.91;;;4.06;75.74
55538;BME280;41383;51.418;7.286;2023-02-10T05:22:42;101809.94;;;4.12;75.40
55538;BME280;41383;51.418;7.286;2023-02-10T05:25:08;101811.47;;;4.06;75.49
55538;BME280;41383;51.418;7.286;2023-02-10T05:27:33;101813.50;;;4.04;75.41
55538;BME280;41383;51.418;7.286;2023-02-10T05:29:59;101814.66;;;4.09;75.60
55538;BME280;41383;51.418;7.286;2023-02-10T05:32:24;101813.84;;;4.01;75.15
55538;BME280;41383;51.418;7.286;2023-02-10T05:34:50;101830.53;;;4.04;75.68
55538;BME280;41383;51.418;7.286;2023-02-10T05:37:15;101829.88;;;3.94;75.37
55538;BME280;41383;51.418;7.286;2023-02-10T05:39:41;101832.06;;;3.99;75.66
55538;BME280;41383;51.418;7.286;2023-02-10T05:42:06;101835.28;;;3.94;75.57
55538;BME280;41383;51.418;7.286;2023-02-10T05:44:31;101831.53;;;3.95;75.98
55538;BME280;41383;51.418;7.286;2023-02-10T05:46:57;101835.59;;;3.91;76.00
55538;BME280;41383;51.418;7.286;2023-02-10T05:49:23;101837.28;;;3.83;75.96
55538;BME280;41383;51.418;7.286;2023-02-10T05:51:48;101840.34;;;3.80;75.61
55538;BME280;41383;51.418;7.286;2023-02-10T05:54:13;101846.38;;;3.82;76.68
55538;BME280;41383;51.418;7.286;2023-02-10T05:56:39;101844.88;;;3.80;76.38
55538;BME280;41383;51.418;7.286;2023-02-10T05:59:05;101849.25;;;3.89;76.27
55538;BME280;41383;51.418;7.286;2023-02-10T06:01:31;101836.78;;;3.88;75.72
55538;BME280;41383;51.418;7.286;2023-02-10T06:03:57;101835.25;;;3.85;76.18
55538;BME280;41383;51.418;7.286;2023-02-10T06:06:23;101842.19;;;3.88;75.83
55538;BME280;41383;51.418;7.286;2023-02-10T06:08:48;101847.41;;;3.98;75.80
55538;BME280;41383;51.418;7.286;2023-02-10T06:11:14;101859.06;;;3.90;75.57
55538;BME280;41383;51.418;7.286;2023-02-10T06:13:39;101855.16;;;3.93;75.41
55538;BME280;41383;51.418;7.286;2023-02-10T06:16:05;101858.03;;;3.74;76.00
55538;BME280;41383;51.418;7.286;2023-02-10T06:18:31;101862.75;;;3.81;76.15
55538;BME280;41383;51.418;7.286;2023-02-10T06:20:57;101853.50;;;3.92;75.79
55538;BME280;41383;51.418;7.286;2023-02-10T06:23:23;101862.56;;;3.91;75.48
55538;BME280;41383;51.418;7.286;2023-02-10T06:25:48;101857.19;;;3.91;75.43
55538;BME280;41383;51.418;7.286;2023-02-10T06:28:14;101855.50;;;3.90;75.91
55538;BME280;41383;51.418;7.286;2023-02-10T06:30:41;101865.63;;;3.96;75.73
55538;BME280;41383;51.418;7.286;2023-02-10T06:33:06;101867.66;;;3.94;75.27
55538;BME280;41383;51.418;7.286;2023-02-10T06:35:32;101869.00;;;3.90;75.70
55538;BME280;41383;51.418;7.286;2023-02-10T06:37:57;101866.97;;;3.92;75.72
55538;BME280;41383;51.418;7.286;2023-02-10T06:40:22;101880.78;;;3.89;75.69
55538;BME280;41383;51.418;7.286;2023-02-10T06:42:48;101871.34;;;3.93;75.38
55538;BME280;41383;51.418;7.286;2023-02-10T06:45:13;101875.59;;;3.95;75.14
55538;BME280;41383;51.418;7.286;2023-02-10T06:47:38;101878.47;;;3.94;75.08
55538;BME280;41383;51.418;7.286;2023-02-10T06:50:04;101879.97;;;3.88;75.88
55538;BME280;41383;51.418;7.286;2023-02-10T06:52:29;101886.72;;;3.92;75.61
55538;BME280;41383;51.418;7.286;2023-02-10T06:54:56;101893.28;;;3.90;75.52
55538;BME280;41383;51.418;7.286;2023-02-10T06:57:22;101884.16;;;3.91;75.91
55538;BME280;41383;51.418;7.286;2023-02-10T06:59:47;101889.94;;;3.96;75.59
55538;BME280;41383;51.418;7.286;2023-02-10T07:02:12;101896.00;;;3.90;75.92
55538;BME280;41383;51.418;7.286;2023-02-10T07:04:38;101889.06;;;3.95;75.74
55538;BME280;41383;51.418;7.286;2023-02-10T07:07:03;101881.31;;;3.92;75.63
55538;BME280;41383;51.418;7.286;2023-02-10T07:09:28;101887.22;;;3.96;75.66
55538;BME280;41383;51.418;7.286;2023-02-10T07:11:54;101883.00;;;3.93;75.55
55538;BME280;41383;51.418;7.286;2023-02-10T07:14:19;101890.91;;;3.87;75.69
55538;BME280;41383;51.418;7.286;2023-02-10T07:16:44;101886.53;;;3.77;76.33
55538;BME280;41383;51.418;7.286;2023-02-10T07:19:09;101876.06;;;3.91;76.10
55538;BME280;41383;51.418;7.286;2023-02-10T07:21:35;101884.16;;;3.82;76.42
55538;BME280;41383;51.418;7.286;2023-02-10T07:24:00;101886.53;;;3.85;76.22
55538;BME280;41383;51.418;7.286;2023-02-10T07:26:27;101878.13;;;3.80;76.58
55538;BME280;41383;51.418;7.286;2023-02-10T07:28:52;101882.16;;;3.76;77.19
55538;BME280;41383;51.418;7.286;2023-02-10T07:31:18;101873.03;;;3.69;77.31
55538;BME280;41383;51.418;7.286;2023-02-10T07:33:43;101870.50;;;3.76;77.10
55538;BME280;41383;51.418;7.286;2023-02-10T07:36:08;101874.06;;;3.68;76.82
55538;BME280;41383;51.418;7.286;2023-02-10T07:38:34;101878.91;;;3.64;77.42
55538;BME280;41383;51.418;7.286;2023-02-10T07:41:01;101871.50;;;3.74;78.00
55538;BME280;41383;51.418;7.286;2023-02-10T07:43:26;101880.47;;;3.75;77.36
55538;BME280;41383;51.418;7.286;2023-02-10T07:45:52;101881.31;;;3.76;77.83
55538;BME280;41383;51.418;7.286;2023-02-10T07:48:17;101885.00;;;3.74;77.01
55538;BME280;41383;51.418;7.286;2023-02-10T07:50:43;101891.63;;;3.80;77.68
55538;BME280;41383;51.418;7.286;2023-02-10T07:53:09;101893.28;;;3.90;77.33
55538;BME280;41383;51.418;7.286;2023-02-10T07:55:36;101897.66;;;3.91;77.30
55538;BME280;41383;51.418;7.286;2023-02-10T07:58:01;101889.25;;;3.94;76.86
55538;BME280;41383;51.418;7.286;2023-02-10T08:00:26;101886.56;;;4.02;76.50
55538;BME280;41383;51.418;7.286;2023-02-10T08:02:52;101900.03;;;3.94;76.92
55538;BME280;41383;51.418;7.286;2023-02-10T08:05:17;101898.34;;;3.93;76.84
55538;BME280;41383;51.418;7.286;2023-02-10T08:07:42;101906.44;;;4.01;78.13
55538;BME280;41383;51.418;7.286;2023-02-10T08:10:08;101915.41;;;4.10;78.05
55538;BME280;41383;51.418;7.286;2023-02-10T08:12:33;101907.81;;;4.05;77.42
55538;BME280;41383;51.418;7.286;2023-02-10T08:14:58;101906.13;;;4.04;77.64
55538;BME280;41383;51.418;7.286;2023-02-10T08:17:23;101914.91;;;4.06;76.83
55538;BME280;41383;51.418;7.286;2023-02-10T08:19:49;101916.25;;;4.11;77.00
55538;BME280;41383;51.418;7.286;2023-02-10T08:22:14;101914.91;;;4.15;76.78
55538;BME280;41383;51.418;7.286;2023-02-10T08:24:39;101916.59;;;4.07;76.61
55538;BME280;41383;51.418;7.286;2023-02-10T08:27:05;101913.38;;;4.12;77.31
55538;BME280;41383;51.418;7.286;2023-02-10T08:29:31;101914.56;;;4.09;77.03
55538;BME280;41383;51.418;7.286;2023-02-10T08:31:56;101914.38;;;4.11;77.27
55538;BME280;41383;51.418;7.286;2023-02-10T08:34:21;101911.84;;;4.18;77.73
55538;BME280;41383;51.418;7.286;2023-02-10T08:36:47;101917.94;;;4.28;77.18
55538;BME280;41383;51.418;7.286;2023-02-10T08:39:13;101909.16;;;4.18;76.87
55538;BME280;41383;51.418;7.286;2023-02-10T08:41:39;101912.22;;;4.15;77.55
55538;BME280;41383;51.418;7.286;2023-02-10T08:44:05;101920.81;;;4.10;77.83
55538;BME280;41383;51.418;7.286;2023-02-10T08:46:31;101930.75;;;4.18;77.94
55538;BME280;41383;51.418;7.286;2023-02-10T08:48:56;101930.94;;;4.16;77.92
55538;BME280;41383;51.418;7.286;2023-02-10T08:51:22;101925.53;;;4.33;78.16
55538;BME280;41383;51.418;7.286;2023-02-10T08:53:48;101931.44;;;4.37;78.03
55538;BME280;41383;51.418;7.286;2023-02-10T08:56:16;101933.28;;;4.36;78.06
55538;BME280;41383;51.418;7.286;2023-02-10T08:58:41;101925.38;;;4.26;78.04
55538;BME280;41383;51.418;7.286;2023-02-10T09:01:15;101928.75;;;4.28;79.01
55538;BME280;41383;51.418;7.286;2023-02-10T09:03:41;101930.59;;;4.19;79.27
55538;BME280;41383;51.418;7.286;2023-02-10T09:06:27;101927.38;;;4.24;79.73
55538;BME280;41383;51.418;7.286;2023-02-10T09:08:53;101930.94;;;4.33;79.55
55538;BME280;41383;51.418;7.286;2023-02-10T09:11:20;101931.09;;;4.31;79.17
55538;BME280;41383;51.418;7.286;2023-02-10T09:13:47;101930.78;;;4.35;79.72
55538;BME280;41383;51.418;7.286;2023-02-10T09:16:13;101931.44;;;4.37;79.42
55538;BME280;41383;51.418;7.286;2023-02-10T09:18:38;101944.59;;;4.57;79.35
55538;BME280;41383;51.418;7.286;2023-02-10T09:21:03;101940.16;;;4.72;78.36
55538;BME280;41383;51.418;7.286;2023-02-10T09:23:29;101948.44;;;4.79;78.02
55538;BME280;41383;51.418;7.286;2023-02-10T09:25:56;101960.78;;;4.82;77.91
55538;BME280;41383;51.418;7.286;2023-02-10T09:28:22;101960.22;;;4.86;77.95
55538;BME280;41383;51.418;7.286;2023-02-10T09:30:49;101962.13;;;4.86;77.75
55538;BME280;41383;51.418;7.286;2023-02-10T09:33:14;101971.03;;;4.95;77.76
55538;BME280;41383;51.418;7.286;2023-02-10T09:35:40;101959.00;;;5.14;77.24
55538;BME280;41383;51.418;7.286;2023-02-10T09:38:06;101965.41;;;5.13;76.96
55538;BME280;41383;51.418;7.286;2023-02-10T09:40:34;101961.34;;;5.09;76.75
55538;BME280;41383;51.418;7.286;2023-02-10T09:43:17;101967.31;;;4.96;77.26
55538;BME280;41383;51.418;7.286;2023-02-10T09:45:47;101972.34;;;5.16;77.02
55538;BME280;41383;51.418;7.286;2023-02-10T09:48:37;101971.88;;;4.95;77.29
55538;BME280;41383;51.418;7.286;2023-02-10T09:54:10;101984.69;;;5.10;76.95
55538;BME280;41383;51.418;7.286;2023-02-10T09:56:36;101983.66;;;5.11;76.68
55538;BME280;41383;51.418;7.286;2023-02-10T09:59:02;101987.88;;;5.13;76.63
55538;BME280;41383;51.418;7.286;2023-02-10T10:01:34;101976.50;;;5.35;76.57
55538;BME280;41383;51.418;7.286;2023-02-10T10:04:04;101972.22;;;5.49;75.80
55538;BME280;41383;51.418;7.286;2023-02-10T10:14:19;101971.44;;;5.32;75.74
55538;BME280;41383;51.418;7.286;2023-02-10T10:17:06;101961.28;;;5.34;75.89
55538;BME280;41383;51.418;7.286;2023-02-10T10:20:03;101947.25;;;5.30;75.62
55538;BME280;41383;51.418;7.286;2023-02-10T10:22:48;101945.41;;;5.31;76.60
55538;BME280;41383;51.418;7.286;2023-02-10T10:30:48;101966.31;;;5.37;76.64
55538;BME280;41383;51.418;7.286;2023-02-10T10:35:47;101970.50;;;5.48;75.70
55538;BME280;41383;51.418;7.286;2023-02-10T10:38:20;101971.00;;;5.52;76.55
55538;BME280;41383;51.418;7.286;2023-02-10T10:40:48;101979.34;;;5.73;75.45
55538;BME280;41383;51.418;7.286;2023-02-10T10:43:22;101976.69;;;5.65;74.87
55538;BME280;41383;51.418;7.286;2023-02-10T10:45:51;101981.78;;;5.60;74.82
55538;BME280;41383;51.418;7.286;2023-02-10T10:48:18;101967.25;;;5.61;74.95
55538;BME280;41383;51.418;7.286;2023-02-10T10:50:49;101956.84;;;5.41;75.30
55538;BME280;41383;51.418;7.286;2023-02-10T10:56:40;101967.22;;;5.69;75.50
55538;BME280;41383;51.418;7.286;2023-02-10T10:59:18;101966.78;;;5.81;74.59
55538;BME280;41383;51.418;7.286;2023-02-10T11:01:46;101955.53;;;5.69;74.61
55538;BME280;41383;51.418;7.286;2023-02-10T11:04:14;101964.81;;;5.75;74.51
55538;BME280;41383;51.418;7.286;2023-02-10T11:06:43;101955.56;;;5.60;74.74
55538;BME280;41383;51.418;7.286;2023-02-10T11:09:30;101957.44;;;5.60;74.63
55538;BME280;41383;51.418;7.286;2023-02-10T11:12:06;101948.03;;;5.47;74.59
55538;BME280;41383;51.418;7.286;2023-02-10T11:14:42;101945.59;;;5.61;74.78
55538;BME280;41383;51.418;7.286;2023-02-10T11:17:20;101936.78;;;5.67;74.52
55538;BME280;41383;51.418;7.286;2023-02-10T11:20:23;101945.63;;;5.84;73.70
55538;BME280;41383;51.418;7.286;2023-02-10T11:25:27;101934.22;;;6.21;73.05
55538;BME280;41383;51.418;7.286;2023-02-10T11:27:53;101927.03;;;6.05;73.46
55538;BME280;41383;51.418;7.286;2023-02-10T11:30:25;101922.38;;;6.22;73.47
55538;BME280;41383;51.418;7.286;2023-02-10T11:32:51;101912.53;;;6.21;72.77
55538;BME280;41383;51.418;7.286;2023-02-10T11:35:17;101917.94;;;6.06;72.91
55538;BME280;41383;51.418;7.286;2023-02-10T11:37:43;101920.38;;;6.16;73.56
55538;BME280;41383;51.418;7.286;2023-02-10T11:40:20;101911.41;;;6.15;72.60
55538;BME280;41383;51.418;7.286;2023-02-10T11:42:48;101908.16;;;6.20;72.88
55538;BME280;41383;51.418;7.286;2023-02-10T11:45:23;101905.84;;;6.32;72.50
55538;BME280;41383;51.418;7.286;2023-02-10T11:48:00;101905.13;;;6.38;72.49
55538;BME280;41383;51.418;7.286;2023-02-10T11:50:32;101911.41;;;6.54;72.22
55538;BME280;41383;51.418;7.286;2023-02-10T11:52:58;101900.47;;;6.62;71.89
55538;BME280;41383;51.418;7.286;2023-02-10T11:55:35;101909.34;;;6.71;71.38
55538;BME280;41383;51.418;7.286;2023-02-10T12:01:09;101900.63;;;6.46;70.97
55538;BME280;41383;51.418;7.286;2023-02-10T12:06:18;101897.25;;;6.44;71.00
55538;BME280;41383;51.418;7.286;2023-02-10T12:17:15;101882.50;;;6.61;70.85
55538;BME280;41383;51.418;7.286;2023-02-10T12:20:18;101891.78;;;6.82;70.63
55538;BME280;41383;51.418;7.286;2023-02-10T12:23:12;101884.94;;;6.71;70.39
55538;BME280;41383;51.418;7.286;2023-02-10T12:29:25;101866.72;;;6.95;69.65
55538;BME280;41383;51.418;7.286;2023-02-10T12:32:16;101865.72;;;6.81;69.62
55538;BME280;41383;51.418;7.286;2023-02-10T12:35:02;101857.28;;;6.76;69.69
55538;BME280;41383;51.418;7.286;2023-02-10T12:40:20;101848.41;;;6.82;69.58
55538;BME280;41383;51.418;7.286;2023-02-10T12:48:46;101851.75;;;6.99;68.91
55538;BME280;41383;51.418;7.286;2023-02-10T12:54:02;101837.53;;;7.34;67.79
55538;BME280;41383;51.418;7.286;2023-02-10T12:56:40;101839.22;;;7.35;67.34
55538;BME280;41383;51.418;7.286;2023-02-10T12:59:17;101837.16;;;7.38;66.94
55538;BME280;41383;51.418;7.286;2023-02-10T13:01:51;101832.19;;;7.41;66.82
55538;BME280;41383;51.418;7.286;2023-02-10T13:04:30;101838.47;;;7.42;66.26
55538;BME280;41383;51.418;7.286;2023-02-10T13:07:08;101832.84;;;7.43;66.24
55538;BME280;41383;51.418;7.286;2023-02-10T13:12:37;101826.88;;;7.55;65.16
55538;BME280;41383;51.418;7.286;2023-02-10T13:15:18;101815.31;;;7.68;65.15
55538;BME280;41383;51.418;7.286;2023-02-10T13:17:59;101817.72;;;7.56;64.74
55538;BME280;41383;51.418;7.286;2023-02-10T13:20:36;101810.09;;;7.66;65.05
55538;BME280;41383;51.418;7.286;2023-02-10T13:24:06;101801.09;;;7.66;63.35
55538;BME280;41383;51.418;7.286;2023-02-10T13:29:45;101818.69;;;7.70;62.64
55538;BME280;41383;51.418;7.286;2023-02-10T13:32:34;101810.97;;;7.74;63.15
55538;BME280;41383;51.418;7.286;2023-02-10T13:35:07;101803.75;;;7.81;63.24
55538;BME280;41383;51.418;7.286;2023-02-10T13:37:44;101801.19;;;7.79;62.67
55538;BME280;41383;51.418;7.286;2023-02-10T13:40:23;101806.63;;;7.79;62.39
55538;BME280;41383;51.418;7.286;2023-02-10T13:43:01;101791.63;;;7.83;62.76
55538;BME280;41383;51.418;7.286;2023-02-10T13:45:28;101793.19;;;7.71;62.09
55538;BME280;41383;51.418;7.286;2023-02-10T13:48:03;101794.44;;;7.68;62.06
55538;BME280;41383;51.418;7.286;2023-02-10T13:50:32;101800.25;;;7.65;62.49
55538;BME280;41383;51.418;7.286;2023-02-10T13:58:52;101788.94;;;7.62;61.93
55538;BME280;41383;51.418;7.286;2023-02-10T14:01:36;101786.16;;;7.77;62.31
55538;BME280;41383;51.418;7.286;2023-02-10T14:04:04;101783.25;;;7.78;61.53
55538;BME280;41383;51.418;7.286;2023-02-10T14:06:39;101775.75;;;7.80;62.08
55538;BME280;41383;51.418;7.286;2023-02-10T14:11:43;101778.69;;;7.86;61.48
55538;BME280;41383;51.418;7.286;2023-02-10T14:14:35;101756.09;;;7.78;61.23
55538;BME280;41383;51.418;7.286;2023-02-10T14:17:17;101764.09;;;7.87;59.95
55538;BME280;41383;51.418;7.286;2023-02-10T14:19:46;101769.13;;;7.90;60.22
55538;BME280;41383;51.418;7.286;2023-02-10T14:22:38;101766.31;;;8.05;60.93
55538;BME280;41383;51.418;7.286;2023-02-10T14:25:34;101763.69;;;7.90;60.53
55538;BME280;41383;51.418;7.286;2023-02-10T14:28:01;101767.44;;;7.89;60.93
55538;BME280;41383;51.418;7.286;2023-02-10T14:30:34;101766.16;;;7.85;61.18
55538;BME280;41383;51.418;7.286;2023-02-10T14:33:01;101761.88;;;7.68;61.85
55538;BME280;41383;51.418;7.286;2023-02-10T14:35:27;101763.16;;;7.73;61.84
55538;BME280;41383;51.418;7.286;2023-02-10T14:37:55;101770.66;;;7.70;62.32
55538;BME280;41383;51.418;7.286;2023-02-10T14:40:23;101763.09;;;7.66;62.49